<?xml version='1.0' encoding='UTF-8'?><gpx version="1.1" creator="JPX - https://github.com/jenetics/jpx" xmlns="http://www.topografix.com/GPX/1/1"><trk><trkseg><trkpt lat="41.8346687" lon="13.4721521"><ele>863.8</ele><time>2026-03-28T09:59:38.266Z</time></trkpt><trkpt lat="41.834704" lon="13.4720523"><ele>867.6</ele><time>2026-03-28T09:59:39.266Z</time></trkpt><trkpt lat="41.8347654" lon="13.4719622"><ele>871.4000000000001</ele><time>2026-03-28T09:59:40.266Z</time></trkpt><trkpt lat="41.8348376" lon="13.4718746"><ele>875.2</ele><time>2026-03-28T09:59:41.266Z</time></trkpt><trkpt lat="41.8348985" lon="13.4717756"><ele>879.0</ele><time>2026-03-28T09:59:42.266Z</time></trkpt><trkpt lat="41.8349531" lon="13.471667"><ele>879.0</ele><time>2026-03-28T09:59:43.267Z</time></trkpt><trkpt lat="41.8350026" lon="13.4715438"><ele>879.0</ele><time>2026-03-28T09:59:44.265Z</time></trkpt><trkpt lat="41.835057" lon="13.4714027"><ele>879.0</ele><time>2026-03-28T09:59:45.266Z</time></trkpt><trkpt lat="41.8351128" lon="13.471259"><ele>879.0</ele><time>2026-03-28T09:59:46.267Z</time></trkpt><trkpt lat="41.835175" lon="13.4711093"><ele>877.0</ele><time>2026-03-28T09:59:47.266Z</time></trkpt><trkpt lat="41.8352443" lon="13.4709629"><ele>875.0</ele><time>2026-03-28T09:59:48.266Z</time></trkpt><trkpt lat="41.8353201" lon="13.4708249"><ele>873.0</ele><time>2026-03-28T09:59:49.267Z</time></trkpt><trkpt lat="41.8354022" lon="13.4706917"><ele>871.0</ele><time>2026-03-28T09:59:50.266Z</time></trkpt><trkpt lat="41.8354899" lon="13.4705653"><ele>871.0</ele><time>2026-03-28T09:59:51.265Z</time></trkpt><trkpt lat="41.8355842" lon="13.470445"><ele>871.0</ele><time>2026-03-28T09:59:52.266Z</time></trkpt><trkpt lat="41.8356864" lon="13.47033"><ele>871.0</ele><time>2026-03-28T09:59:53.266Z</time></trkpt><trkpt lat="41.8357957" lon="13.4702255"><ele>871.0</ele><time>2026-03-28T09:59:54.266Z</time></trkpt><trkpt lat="41.8359115" lon="13.4701295"><ele>870.0</ele><time>2026-03-28T09:59:55.266Z</time></trkpt><trkpt lat="41.8360268" lon="13.4700269"><ele>869.0</ele><time>2026-03-28T09:59:56.266Z</time></trkpt><trkpt lat="41.8361375" lon="13.4699138"><ele>868.0</ele><time>2026-03-28T09:59:57.266Z</time></trkpt><trkpt lat="41.8362375" lon="13.4697951"><ele>867.0</ele><time>2026-03-28T09:59:58.267Z</time></trkpt><trkpt lat="41.8363183" lon="13.4696811"><ele>871.4000000000001</ele><time>2026-03-28T09:59:59.266Z</time></trkpt><trkpt lat="41.8363937" lon="13.4695712"><ele>875.8000000000001</ele><time>2026-03-28T10:00:00.266Z</time></trkpt><trkpt lat="41.836461" lon="13.4694684"><ele>880.2</ele><time>2026-03-28T10:00:01.266Z</time></trkpt><trkpt lat="41.8365224" lon="13.4693736"><ele>884.6</ele><time>2026-03-28T10:00:02.266Z</time></trkpt><trkpt lat="41.8365776" lon="13.4692783"><ele>889.0</ele><time>2026-03-28T10:00:03.266Z</time></trkpt><trkpt lat="41.8366238" lon="13.4691816"><ele>888.9999999999999</ele><time>2026-03-28T10:00:04.265Z</time></trkpt><trkpt lat="41.8366642" lon="13.4690925"><ele>889.0</ele><time>2026-03-28T10:00:05.266Z</time></trkpt><trkpt lat="41.8366973" lon="13.4690095"><ele>889.0</ele><time>2026-03-28T10:00:06.266Z</time></trkpt><trkpt lat="41.836727" lon="13.4689322"><ele>889.0</ele><time>2026-03-28T10:00:07.266Z</time></trkpt><trkpt lat="41.83677" lon="13.4688013"><ele>888.9999999999999</ele><time>2026-03-28T10:00:09.267Z</time></trkpt><trkpt lat="41.8367577" lon="13.4686723"><ele>889.0</ele><time>2026-03-28T10:00:11.267Z</time></trkpt><trkpt lat="41.8366886" lon="13.468566"><ele>889.0</ele><time>2026-03-28T10:00:13.266Z</time></trkpt><trkpt lat="41.8366206" lon="13.4684594"><ele>889.0000000000001</ele><time>2026-03-28T10:00:15.266Z</time></trkpt><trkpt lat="41.8365438" lon="13.4683574"><ele>889.0000000000001</ele><time>2026-03-28T10:00:17.266Z</time></trkpt><trkpt lat="41.8364482" lon="13.4682812"><ele>889.0</ele><time>2026-03-28T10:00:19.266Z</time></trkpt><trkpt lat="41.8363442" lon="13.4681978"><ele>889.0</ele><time>2026-03-28T10:00:21.266Z</time></trkpt><trkpt lat="41.8362286" lon="13.4681398"><ele>889.0</ele><time>2026-03-28T10:00:23.267Z</time></trkpt><trkpt lat="41.8361641" lon="13.4681336"><ele>889.0000000000001</ele><time>2026-03-28T10:00:24.266Z</time></trkpt><trkpt lat="41.8360588" lon="13.4681074"><ele>889.0000000000001</ele><time>2026-03-28T10:00:26.266Z</time></trkpt><trkpt lat="41.8359332" lon="13.4680812"><ele>889.0</ele><time>2026-03-28T10:00:28.266Z</time></trkpt><trkpt lat="41.8358549" lon="13.4680591"><ele>889.0</ele><time>2026-03-28T10:00:29.266Z</time></trkpt><trkpt lat="41.8357766" lon="13.4680416"><ele>891.0</ele><time>2026-03-28T10:00:30.266Z</time></trkpt><trkpt lat="41.8356922" lon="13.4680283"><ele>893.0000000000001</ele><time>2026-03-28T10:00:31.266Z</time></trkpt><trkpt lat="41.8355957" lon="13.4680221"><ele>895.0000000000001</ele><time>2026-03-28T10:00:32.266Z</time></trkpt><trkpt lat="41.8355043" lon="13.4679999"><ele>897.0</ele><time>2026-03-28T10:00:33.266Z</time></trkpt><trkpt lat="41.8354183" lon="13.4679752"><ele>899.0</ele><time>2026-03-28T10:00:34.266Z</time></trkpt><trkpt lat="41.8353318" lon="13.4679466"><ele>898.3333333333334</ele><time>2026-03-28T10:00:35.266Z</time></trkpt><trkpt lat="41.8352463" lon="13.4678951"><ele>897.6666666666667</ele><time>2026-03-28T10:00:36.266Z</time></trkpt><trkpt lat="41.8351776" lon="13.4678384"><ele>897.0</ele><time>2026-03-28T10:00:37.266Z</time></trkpt><trkpt lat="41.8351259" lon="13.4677666"><ele>896.3333333333333</ele><time>2026-03-28T10:00:38.266Z</time></trkpt><trkpt lat="41.8350862" lon="13.4676756"><ele>895.6666666666666</ele><time>2026-03-28T10:00:39.266Z</time></trkpt><trkpt lat="41.8350589" lon="13.4675817"><ele>895.0</ele><time>2026-03-28T10:00:40.266Z</time></trkpt><trkpt lat="41.8350355" lon="13.4674839"><ele>894.9999999999999</ele><time>2026-03-28T10:00:41.266Z</time></trkpt><trkpt lat="41.8350215" lon="13.4673928"><ele>895.0</ele><time>2026-03-28T10:00:42.266Z</time></trkpt><trkpt lat="41.8349844" lon="13.4672655"><ele>895.0</ele><time>2026-03-28T10:00:44.266Z</time></trkpt><trkpt lat="41.8349525" lon="13.4671843"><ele>895.0</ele><time>2026-03-28T10:00:46.266Z</time></trkpt><trkpt lat="41.8349401" lon="13.4670839"><ele>894.9999999999999</ele><time>2026-03-28T10:00:48.266Z</time></trkpt><trkpt lat="41.834943" lon="13.4669107"><ele>895.0</ele><time>2026-03-28T10:00:50.266Z</time></trkpt><trkpt lat="41.8349134" lon="13.4668109"><ele>892.6</ele><time>2026-03-28T10:00:51.266Z</time></trkpt><trkpt lat="41.8348662" lon="13.4666946"><ele>890.2</ele><time>2026-03-28T10:00:52.266Z</time></trkpt><trkpt lat="41.8348145" lon="13.4665681"><ele>887.8</ele><time>2026-03-28T10:00:53.266Z</time></trkpt><trkpt lat="41.834759" lon="13.4664346"><ele>885.4</ele><time>2026-03-28T10:00:54.265Z</time></trkpt><trkpt lat="41.8347074" lon="13.4663171"><ele>883.0</ele><time>2026-03-28T10:00:55.266Z</time></trkpt><trkpt lat="41.834646" lon="13.4662185"><ele>881.0</ele><time>2026-03-28T10:00:56.266Z</time></trkpt><trkpt lat="41.8345592" lon="13.4661386"><ele>879.0</ele><time>2026-03-28T10:00:57.265Z</time></trkpt><trkpt lat="41.8344663" lon="13.4660664"><ele>877.0</ele><time>2026-03-28T10:00:58.266Z</time></trkpt><trkpt lat="41.8343849" lon="13.4659867"><ele>875.0</ele><time>2026-03-28T10:00:59.266Z</time></trkpt><trkpt lat="41.8343077" lon="13.465902"><ele>873.0</ele><time>2026-03-28T10:01:00.266Z</time></trkpt><trkpt lat="41.8342557" lon="13.4658172"><ele>879.8</ele><time>2026-03-28T10:01:01.265Z</time></trkpt><trkpt lat="41.8342273" lon="13.4657137"><ele>886.5999999999999</ele><time>2026-03-28T10:01:02.266Z</time></trkpt><trkpt lat="41.8342233" lon="13.4655972"><ele>893.4000000000001</ele><time>2026-03-28T10:01:03.266Z</time></trkpt><trkpt lat="41.8342263" lon="13.4654686"><ele>900.2</ele><time>2026-03-28T10:01:04.266Z</time></trkpt><trkpt lat="41.8342141" lon="13.4653332"><ele>907.0</ele><time>2026-03-28T10:01:05.266Z</time></trkpt><trkpt lat="41.8341971" lon="13.4651924"><ele>907.0</ele><time>2026-03-28T10:01:06.266Z</time></trkpt><trkpt lat="41.8341747" lon="13.465046"><ele>907.0</ele><time>2026-03-28T10:01:07.266Z</time></trkpt><trkpt lat="41.8341427" lon="13.4649217"><ele>907.0</ele><time>2026-03-28T10:01:08.267Z</time></trkpt><trkpt lat="41.8340968" lon="13.4648124"><ele>907.0</ele><time>2026-03-28T10:01:09.266Z</time></trkpt><trkpt lat="41.8340354" lon="13.4647247"><ele>907.0</ele><time>2026-03-28T10:01:10.266Z</time></trkpt><trkpt lat="41.8339578" lon="13.4646526"><ele>908.0</ele><time>2026-03-28T10:01:11.266Z</time></trkpt><trkpt lat="41.8338676" lon="13.4645921"><ele>909.0</ele><time>2026-03-28T10:01:12.266Z</time></trkpt><trkpt lat="41.8337646" lon="13.4645434"><ele>910.0</ele><time>2026-03-28T10:01:13.266Z</time></trkpt><trkpt lat="41.833657" lon="13.4644814"><ele>911.0</ele><time>2026-03-28T10:01:14.266Z</time></trkpt><trkpt lat="41.8335633" lon="13.4643958"><ele>912.0</ele><time>2026-03-28T10:01:15.266Z</time></trkpt><trkpt lat="41.833492" lon="13.4642901"><ele>912.4000000000001</ele><time>2026-03-28T10:01:16.266Z</time></trkpt><trkpt lat="41.8334474" lon="13.4641904"><ele>912.8000000000001</ele><time>2026-03-28T10:01:17.266Z</time></trkpt><trkpt lat="41.8333696" lon="13.4640931"><ele>913.2</ele><time>2026-03-28T10:01:19.266Z</time></trkpt><trkpt lat="41.8332604" lon="13.4641016"><ele>913.6</ele><time>2026-03-28T10:01:21.267Z</time></trkpt><trkpt lat="41.8331847" lon="13.4641455"><ele>914.0</ele><time>2026-03-28T10:01:22.266Z</time></trkpt><trkpt lat="41.8330946" lon="13.4642033"><ele>914.0</ele><time>2026-03-28T10:01:23.265Z</time></trkpt><trkpt lat="41.8330012" lon="13.464253"><ele>914.0</ele><time>2026-03-28T10:01:24.266Z</time></trkpt><trkpt lat="41.8328676" lon="13.4643173"><ele>914.0</ele><time>2026-03-28T10:01:25.266Z</time></trkpt><trkpt lat="41.832754" lon="13.4643781"><ele>914.0</ele><time>2026-03-28T10:01:26.266Z</time></trkpt><trkpt lat="41.8326385" lon="13.4644352"><ele>917.75</ele><time>2026-03-28T10:01:27.266Z</time></trkpt><trkpt lat="41.8325152" lon="13.4644912"><ele>921.5</ele><time>2026-03-28T10:01:28.266Z</time></trkpt><trkpt lat="41.8323916" lon="13.4645472"><ele>925.25</ele><time>2026-03-28T10:01:29.266Z</time></trkpt><trkpt lat="41.8322683" lon="13.4646019"><ele>929.0</ele><time>2026-03-28T10:01:30.265Z</time></trkpt><trkpt lat="41.8321447" lon="13.4646607"><ele>929.0</ele><time>2026-03-28T10:01:31.266Z</time></trkpt><trkpt lat="41.8320402" lon="13.4647068"><ele>929.0</ele><time>2026-03-28T10:01:32.266Z</time></trkpt><trkpt lat="41.8319243" lon="13.4647526"><ele>929.0</ele><time>2026-03-28T10:01:33.266Z</time></trkpt><trkpt lat="41.8318077" lon="13.4648011"><ele>929.0</ele><time>2026-03-28T10:01:34.266Z</time></trkpt><trkpt lat="41.8316959" lon="13.4648433"><ele>923.4000000000001</ele><time>2026-03-28T10:01:35.266Z</time></trkpt><trkpt lat="41.8315825" lon="13.464887"><ele>917.8000000000001</ele><time>2026-03-28T10:01:36.266Z</time></trkpt><trkpt lat="41.8314805" lon="13.4649081"><ele>912.1999999999999</ele><time>2026-03-28T10:01:37.266Z</time></trkpt><trkpt lat="41.8313863" lon="13.4649511"><ele>906.5999999999999</ele><time>2026-03-28T10:01:38.266Z</time></trkpt><trkpt lat="41.8313077" lon="13.4649756"><ele>901.0</ele><time>2026-03-28T10:01:39.265Z</time></trkpt><trkpt lat="41.8312143" lon="13.4649525"><ele>900.9999999999999</ele><time>2026-03-28T10:01:41.266Z</time></trkpt><trkpt lat="41.8311889" lon="13.464846"><ele>901.0</ele><time>2026-03-28T10:01:43.266Z</time></trkpt><trkpt lat="41.8311912" lon="13.4647588"><ele>901.0</ele><time>2026-03-28T10:01:44.266Z</time></trkpt><trkpt lat="41.8311916" lon="13.4646424"><ele>901.0</ele><time>2026-03-28T10:01:45.266Z</time></trkpt><trkpt lat="41.8311914" lon="13.4645168"><ele>900.9999999999999</ele><time>2026-03-28T10:01:46.266Z</time></trkpt><trkpt lat="41.831196" lon="13.4644012"><ele>901.0</ele><time>2026-03-28T10:01:47.266Z</time></trkpt><trkpt lat="41.8312091" lon="13.4643061"><ele>899.1666666666666</ele><time>2026-03-28T10:01:49.266Z</time></trkpt><trkpt lat="41.8312338" lon="13.4642267"><ele>897.3333333333333</ele><time>2026-03-28T10:01:50.266Z</time></trkpt><trkpt lat="41.8312647" lon="13.4641402"><ele>895.5</ele><time>2026-03-28T10:01:51.266Z</time></trkpt><trkpt lat="41.8312825" lon="13.4640458"><ele>893.6666666666667</ele><time>2026-03-28T10:01:52.266Z</time></trkpt><trkpt lat="41.8312859" lon="13.463941"><ele>891.8333333333334</ele><time>2026-03-28T10:01:53.266Z</time></trkpt><trkpt lat="41.8312764" lon="13.4638092"><ele>890.0</ele><time>2026-03-28T10:01:54.266Z</time></trkpt><trkpt lat="41.8312843" lon="13.4637115"><ele>890.0000000000001</ele><time>2026-03-28T10:01:55.266Z</time></trkpt><trkpt lat="41.831309" lon="13.4636065"><ele>890.0</ele><time>2026-03-28T10:01:56.265Z</time></trkpt><trkpt lat="41.8313478" lon="13.4635185"><ele>890.0</ele><time>2026-03-28T10:01:57.266Z</time></trkpt><trkpt lat="41.8314005" lon="13.4634358"><ele>890.0</ele><time>2026-03-28T10:01:58.267Z</time></trkpt><trkpt lat="41.8314486" lon="13.4633431"><ele>890.0000000000001</ele><time>2026-03-28T10:01:59.266Z</time></trkpt><trkpt lat="41.8314814" lon="13.4632325"><ele>890.0</ele><time>2026-03-28T10:02:00.266Z</time></trkpt><trkpt lat="41.8315345" lon="13.4631245"><ele>890.0</ele><time>2026-03-28T10:02:01.265Z</time></trkpt><trkpt lat="41.8316034" lon="13.4630183"><ele>890.0</ele><time>2026-03-28T10:02:02.266Z</time></trkpt><trkpt lat="41.8316745" lon="13.4629024"><ele>890.0</ele><time>2026-03-28T10:02:03.267Z</time></trkpt><trkpt lat="41.8317364" lon="13.4627848"><ele>890.0</ele><time>2026-03-28T10:02:04.266Z</time></trkpt><trkpt lat="41.831791" lon="13.4626857"><ele>890.0</ele><time>2026-03-28T10:02:05.266Z</time></trkpt><trkpt lat="41.8318235" lon="13.4625806"><ele>893.3333333333334</ele><time>2026-03-28T10:02:06.265Z</time></trkpt><trkpt lat="41.8318387" lon="13.4624705"><ele>896.6666666666667</ele><time>2026-03-28T10:02:07.266Z</time></trkpt><trkpt lat="41.8318368" lon="13.4623588"><ele>900.0</ele><time>2026-03-28T10:02:08.265Z</time></trkpt><trkpt lat="41.831818" lon="13.4622504"><ele>903.3333333333333</ele><time>2026-03-28T10:02:09.265Z</time></trkpt><trkpt lat="41.8317946" lon="13.4621349"><ele>906.6666666666666</ele><time>2026-03-28T10:02:10.266Z</time></trkpt><trkpt lat="41.8317586" lon="13.4620285"><ele>910.0</ele><time>2026-03-28T10:02:11.266Z</time></trkpt><trkpt lat="41.8317046" lon="13.4619455"><ele>910.6666666666666</ele><time>2026-03-28T10:02:12.266Z</time></trkpt><trkpt lat="41.8316426" lon="13.4618464"><ele>911.3333333333333</ele><time>2026-03-28T10:02:13.266Z</time></trkpt><trkpt lat="41.8315912" lon="13.4617389"><ele>912.0</ele><time>2026-03-28T10:02:14.265Z</time></trkpt><trkpt lat="41.8315547" lon="13.4616253"><ele>912.6666666666667</ele><time>2026-03-28T10:02:15.266Z</time></trkpt><trkpt lat="41.8315483" lon="13.4615236"><ele>913.3333333333334</ele><time>2026-03-28T10:02:16.266Z</time></trkpt><trkpt lat="41.8315709" lon="13.4614303"><ele>914.0</ele><time>2026-03-28T10:02:17.266Z</time></trkpt><trkpt lat="41.8316075" lon="13.4613398"><ele>915.6</ele><time>2026-03-28T10:02:18.266Z</time></trkpt><trkpt lat="41.8316463" lon="13.4612274"><ele>917.2</ele><time>2026-03-28T10:02:19.266Z</time></trkpt><trkpt lat="41.8316748" lon="13.4611021"><ele>918.8000000000001</ele><time>2026-03-28T10:02:20.266Z</time></trkpt><trkpt lat="41.8316965" lon="13.4609617"><ele>920.4000000000001</ele><time>2026-03-28T10:02:21.266Z</time></trkpt><trkpt lat="41.8317194" lon="13.460817"><ele>922.0</ele><time>2026-03-28T10:02:22.266Z</time></trkpt><trkpt lat="41.8317298" lon="13.4606836"><ele>922.0</ele><time>2026-03-28T10:02:23.266Z</time></trkpt><trkpt lat="41.8317218" lon="13.4605591"><ele>922.0</ele><time>2026-03-28T10:02:24.266Z</time></trkpt><trkpt lat="41.8317136" lon="13.4604315"><ele>922.0</ele><time>2026-03-28T10:02:25.266Z</time></trkpt><trkpt lat="41.8317089" lon="13.460291"><ele>922.0</ele><time>2026-03-28T10:02:26.266Z</time></trkpt><trkpt lat="41.8317094" lon="13.4601359"><ele>922.0</ele><time>2026-03-28T10:02:27.266Z</time></trkpt><trkpt lat="41.8317103" lon="13.4599664"><ele>923.0</ele><time>2026-03-28T10:02:28.266Z</time></trkpt><trkpt lat="41.8317084" lon="13.4598144"><ele>924.0</ele><time>2026-03-28T10:02:29.266Z</time></trkpt><trkpt lat="41.8317037" lon="13.4596592"><ele>925.0</ele><time>2026-03-28T10:02:30.265Z</time></trkpt><trkpt lat="41.8316841" lon="13.4595414"><ele>926.0</ele><time>2026-03-28T10:02:31.266Z</time></trkpt><trkpt lat="41.8316571" lon="13.4594061"><ele>927.0</ele><time>2026-03-28T10:02:32.266Z</time></trkpt><trkpt lat="41.8316249" lon="13.459274"><ele>927.0</ele><time>2026-03-28T10:02:33.266Z</time></trkpt><trkpt lat="41.8315999" lon="13.459145"><ele>927.0</ele><time>2026-03-28T10:02:34.266Z</time></trkpt><trkpt lat="41.8315602" lon="13.4590422"><ele>927.0</ele><time>2026-03-28T10:02:35.266Z</time></trkpt><trkpt lat="41.8315085" lon="13.4589456"><ele>927.0</ele><time>2026-03-28T10:02:37.266Z</time></trkpt><trkpt lat="41.8314798" lon="13.4588071"><ele>927.0</ele><time>2026-03-28T10:02:39.266Z</time></trkpt><trkpt lat="41.8314687" lon="13.4586968"><ele>928.4000000000001</ele><time>2026-03-28T10:02:40.266Z</time></trkpt><trkpt lat="41.8314776" lon="13.4585702"><ele>929.8000000000001</ele><time>2026-03-28T10:02:41.266Z</time></trkpt><trkpt lat="41.8314874" lon="13.4584435"><ele>931.2</ele><time>2026-03-28T10:02:42.266Z</time></trkpt><trkpt lat="41.831506" lon="13.4583174"><ele>932.6</ele><time>2026-03-28T10:02:43.266Z</time></trkpt><trkpt lat="41.8315386" lon="13.4582099"><ele>934.0</ele><time>2026-03-28T10:02:44.266Z</time></trkpt><trkpt lat="41.8315859" lon="13.4581073"><ele>934.0</ele><time>2026-03-28T10:02:45.266Z</time></trkpt><trkpt lat="41.8316449" lon="13.458015"><ele>934.0000000000001</ele><time>2026-03-28T10:02:46.267Z</time></trkpt><trkpt lat="41.8317077" lon="13.4579281"><ele>934.0000000000001</ele><time>2026-03-28T10:02:47.266Z</time></trkpt><trkpt lat="41.8317717" lon="13.4578279"><ele>934.0</ele><time>2026-03-28T10:02:48.266Z</time></trkpt><trkpt lat="41.8318423" lon="13.4577381"><ele>934.0</ele><time>2026-03-28T10:02:49.266Z</time></trkpt><trkpt lat="41.8319072" lon="13.4576552"><ele>933.4000000000001</ele><time>2026-03-28T10:02:50.267Z</time></trkpt><trkpt lat="41.8319403" lon="13.457547"><ele>932.8000000000001</ele><time>2026-03-28T10:02:51.266Z</time></trkpt><trkpt lat="41.8319707" lon="13.4574275"><ele>932.1999999999999</ele><time>2026-03-28T10:02:52.266Z</time></trkpt><trkpt lat="41.8319971" lon="13.4573037"><ele>931.5999999999999</ele><time>2026-03-28T10:02:53.266Z</time></trkpt><trkpt lat="41.8320034" lon="13.4571739"><ele>931.0</ele><time>2026-03-28T10:02:54.266Z</time></trkpt><trkpt lat="41.832001" lon="13.4570353"><ele>931.0</ele><time>2026-03-28T10:02:55.266Z</time></trkpt><trkpt lat="41.8319839" lon="13.4569059"><ele>930.9999999999999</ele><time>2026-03-28T10:02:56.266Z</time></trkpt><trkpt lat="41.8319773" lon="13.4567833"><ele>930.9999999999999</ele><time>2026-03-28T10:02:57.266Z</time></trkpt><trkpt lat="41.832007" lon="13.4566784"><ele>931.0</ele><time>2026-03-28T10:02:58.266Z</time></trkpt><trkpt lat="41.8320409" lon="13.4565545"><ele>931.0</ele><time>2026-03-28T10:02:59.266Z</time></trkpt><trkpt lat="41.8320789" lon="13.4564327"><ele>931.0</ele><time>2026-03-28T10:03:00.266Z</time></trkpt><trkpt lat="41.8321105" lon="13.4563048"><ele>931.0</ele><time>2026-03-28T10:03:01.266Z</time></trkpt><trkpt lat="41.8321358" lon="13.4561044"><ele>931.0</ele><time>2026-03-28T10:03:02.266Z</time></trkpt><trkpt lat="41.8321611" lon="13.4559284"><ele>931.0</ele><time>2026-03-28T10:03:03.266Z</time></trkpt><trkpt lat="41.8322043" lon="13.455766"><ele>932.8</ele><time>2026-03-28T10:03:04.266Z</time></trkpt><trkpt lat="41.8322406" lon="13.4556268"><ele>934.5999999999999</ele><time>2026-03-28T10:03:05.266Z</time></trkpt><trkpt lat="41.8322854" lon="13.4555174"><ele>936.4</ele><time>2026-03-28T10:03:06.265Z</time></trkpt><trkpt lat="41.8323234" lon="13.4554221"><ele>938.2</ele><time>2026-03-28T10:03:07.266Z</time></trkpt><trkpt lat="41.8324765" lon="13.4553648"><ele>940.0</ele><time>2026-03-28T10:03:09.266Z</time></trkpt><trkpt lat="41.8325818" lon="13.4553518"><ele>938.4999999999999</ele><time>2026-03-28T10:03:10.266Z</time></trkpt><trkpt lat="41.8326591" lon="13.4553078"><ele>937.0</ele><time>2026-03-28T10:03:11.266Z</time></trkpt><trkpt lat="41.8327395" lon="13.4552605"><ele>935.5</ele><time>2026-03-28T10:03:12.266Z</time></trkpt><trkpt lat="41.8328356" lon="13.4551414"><ele>934.0</ele><time>2026-03-28T10:03:14.266Z</time></trkpt><trkpt lat="41.8328039" lon="13.455061"><ele>932.4999999999999</ele><time>2026-03-28T10:03:15.266Z</time></trkpt><trkpt lat="41.832774" lon="13.4549814"><ele>931.0</ele><time>2026-03-28T10:03:16.267Z</time></trkpt><trkpt lat="41.832732" lon="13.4548896"><ele>931.0</ele><time>2026-03-28T10:03:17.266Z</time></trkpt><trkpt lat="41.8327086" lon="13.4547778"><ele>930.9999999999999</ele><time>2026-03-28T10:03:18.267Z</time></trkpt><trkpt lat="41.8326938" lon="13.4546467"><ele>930.9999999999999</ele><time>2026-03-28T10:03:19.266Z</time></trkpt><trkpt lat="41.8326837" lon="13.4545151"><ele>931.0</ele><time>2026-03-28T10:03:20.266Z</time></trkpt><trkpt lat="41.8326853" lon="13.4543896"><ele>931.0</ele><time>2026-03-28T10:03:21.266Z</time></trkpt><trkpt lat="41.8326899" lon="13.454274"><ele>935.5999999999999</ele><time>2026-03-28T10:03:22.265Z</time></trkpt><trkpt lat="41.8327057" lon="13.4541563"><ele>940.1999999999999</ele><time>2026-03-28T10:03:23.266Z</time></trkpt><trkpt lat="41.8327618" lon="13.4540548"><ele>944.8000000000001</ele><time>2026-03-28T10:03:24.267Z</time></trkpt><trkpt lat="41.8328563" lon="13.4539714"><ele>949.4000000000001</ele><time>2026-03-28T10:03:25.267Z</time></trkpt><trkpt lat="41.8329345" lon="13.4538822"><ele>954.0</ele><time>2026-03-28T10:03:26.266Z</time></trkpt><trkpt lat="41.8330243" lon="13.4538123"><ele>954.0</ele><time>2026-03-28T10:03:27.267Z</time></trkpt><trkpt lat="41.8331132" lon="13.4537453"><ele>954.0</ele><time>2026-03-28T10:03:28.266Z</time></trkpt><trkpt lat="41.8332101" lon="13.4537301"><ele>954.0</ele><time>2026-03-28T10:03:29.266Z</time></trkpt><trkpt lat="41.8333001" lon="13.4537221"><ele>954.0</ele><time>2026-03-28T10:03:30.266Z</time></trkpt><trkpt lat="41.8333744" lon="13.4537554"><ele>954.0</ele><time>2026-03-28T10:03:31.266Z</time></trkpt><trkpt lat="41.8334387" lon="13.4538158"><ele>954.0</ele><time>2026-03-28T10:03:32.266Z</time></trkpt><trkpt lat="41.8334869" lon="13.4538943"><ele>953.4000000000001</ele><time>2026-03-28T10:03:33.266Z</time></trkpt><trkpt lat="41.8335391" lon="13.4539871"><ele>952.8000000000001</ele><time>2026-03-28T10:03:34.266Z</time></trkpt><trkpt lat="41.8336447" lon="13.4540396"><ele>952.1999999999999</ele><time>2026-03-28T10:03:36.266Z</time></trkpt><trkpt lat="41.8337468" lon="13.4539626"><ele>951.5999999999999</ele><time>2026-03-28T10:03:38.266Z</time></trkpt><trkpt lat="41.8337862" lon="13.4538708"><ele>951.0</ele><time>2026-03-28T10:03:39.266Z</time></trkpt><trkpt lat="41.8338285" lon="13.4537442"><ele>954.5999999999999</ele><time>2026-03-28T10:03:40.266Z</time></trkpt><trkpt lat="41.8338935" lon="13.453602"><ele>958.1999999999999</ele><time>2026-03-28T10:03:41.266Z</time></trkpt><trkpt lat="41.833961" lon="13.4535036"><ele>961.8000000000001</ele><time>2026-03-28T10:03:42.266Z</time></trkpt><trkpt lat="41.8340272" lon="13.4534435"><ele>965.4000000000001</ele><time>2026-03-28T10:03:43.266Z</time></trkpt><trkpt lat="41.8340926" lon="13.45341"><ele>969.0</ele><time>2026-03-28T10:03:44.266Z</time></trkpt><trkpt lat="41.8341675" lon="13.4534274"><ele>969.0</ele><time>2026-03-28T10:03:45.266Z</time></trkpt><trkpt lat="41.8342585" lon="13.4534255"><ele>969.0</ele><time>2026-03-28T10:03:46.266Z</time></trkpt><trkpt lat="41.834352" lon="13.453404"><ele>969.0</ele><time>2026-03-28T10:03:47.266Z</time></trkpt><trkpt lat="41.8344265" lon="13.4533601"><ele>969.0</ele><time>2026-03-28T10:03:48.265Z</time></trkpt><trkpt lat="41.8344968" lon="13.4532868"><ele>969.0</ele><time>2026-03-28T10:03:49.266Z</time></trkpt><trkpt lat="41.834562" lon="13.4531981"><ele>969.0</ele><time>2026-03-28T10:03:50.266Z</time></trkpt><trkpt lat="41.8346438" lon="13.4531171"><ele>969.6</ele><time>2026-03-28T10:03:51.266Z</time></trkpt><trkpt lat="41.8347239" lon="13.4530295"><ele>970.2</ele><time>2026-03-28T10:03:52.266Z</time></trkpt><trkpt lat="41.8347911" lon="13.4529303"><ele>970.8000000000001</ele><time>2026-03-28T10:03:53.266Z</time></trkpt><trkpt lat="41.8348618" lon="13.4528273"><ele>971.4000000000001</ele><time>2026-03-28T10:03:54.266Z</time></trkpt><trkpt lat="41.8349295" lon="13.4527131"><ele>972.0</ele><time>2026-03-28T10:03:55.266Z</time></trkpt><trkpt lat="41.835008" lon="13.4525811"><ele>972.0</ele><time>2026-03-28T10:03:56.267Z</time></trkpt><trkpt lat="41.835085" lon="13.4524406"><ele>972.0</ele><time>2026-03-28T10:03:57.266Z</time></trkpt><trkpt lat="41.8351533" lon="13.4523204"><ele>972.0</ele><time>2026-03-28T10:03:58.266Z</time></trkpt><trkpt lat="41.8352192" lon="13.4522052"><ele>972.0</ele><time>2026-03-28T10:03:59.265Z</time></trkpt><trkpt lat="41.8352739" lon="13.4520942"><ele>971.8</ele><time>2026-03-28T10:04:00.266Z</time></trkpt><trkpt lat="41.8353216" lon="13.4519755"><ele>971.6</ele><time>2026-03-28T10:04:01.266Z</time></trkpt><trkpt lat="41.8353567" lon="13.4518518"><ele>971.3999999999999</ele><time>2026-03-28T10:04:02.266Z</time></trkpt><trkpt lat="41.8353848" lon="13.4517428"><ele>971.1999999999999</ele><time>2026-03-28T10:04:03.266Z</time></trkpt><trkpt lat="41.835399" lon="13.4516279"><ele>971.0</ele><time>2026-03-28T10:04:04.266Z</time></trkpt><trkpt lat="41.8354207" lon="13.4515268"><ele>971.0</ele><time>2026-03-28T10:04:05.266Z</time></trkpt><trkpt lat="41.8354826" lon="13.4514291"><ele>970.9999999999999</ele><time>2026-03-28T10:04:06.266Z</time></trkpt><trkpt lat="41.8355282" lon="13.4513266"><ele>970.9999999999999</ele><time>2026-03-28T10:04:07.265Z</time></trkpt><trkpt lat="41.8356115" lon="13.4512261"><ele>971.0</ele><time>2026-03-28T10:04:08.266Z</time></trkpt><trkpt lat="41.8356778" lon="13.4511359"><ele>971.0</ele><time>2026-03-28T10:04:09.266Z</time></trkpt><trkpt lat="41.8357781" lon="13.4511005"><ele>973.1666666666667</ele><time>2026-03-28T10:04:10.266Z</time></trkpt><trkpt lat="41.8358634" lon="13.4510689"><ele>975.3333333333334</ele><time>2026-03-28T10:04:11.266Z</time></trkpt><trkpt lat="41.8359181" lon="13.4510267"><ele>977.5</ele><time>2026-03-28T10:04:12.265Z</time></trkpt><trkpt lat="41.8360055" lon="13.4509748"><ele>979.6666666666667</ele><time>2026-03-28T10:04:13.266Z</time></trkpt><trkpt lat="41.8360924" lon="13.4509262"><ele>981.8333333333334</ele><time>2026-03-28T10:04:14.266Z</time></trkpt><trkpt lat="41.8361765" lon="13.4508879"><ele>984.0</ele><time>2026-03-28T10:04:15.266Z</time></trkpt><trkpt lat="41.8362404" lon="13.4508717"><ele>984.0</ele><time>2026-03-28T10:04:16.266Z</time></trkpt><trkpt lat="41.8363226" lon="13.4508529"><ele>984.0</ele><time>2026-03-28T10:04:17.266Z</time></trkpt><trkpt lat="41.836426" lon="13.4508224"><ele>984.0</ele><time>2026-03-28T10:04:18.266Z</time></trkpt><trkpt lat="41.8365072" lon="13.4507797"><ele>984.0</ele><time>2026-03-28T10:04:19.266Z</time></trkpt><trkpt lat="41.8365726" lon="13.4507306"><ele>984.0</ele><time>2026-03-28T10:04:20.266Z</time></trkpt><trkpt lat="41.8366366" lon="13.4506769"><ele>984.0</ele><time>2026-03-28T10:04:21.265Z</time></trkpt><trkpt lat="41.836692" lon="13.4505907"><ele>984.0</ele><time>2026-03-28T10:04:22.266Z</time></trkpt><trkpt lat="41.836758" lon="13.4505097"><ele>984.0000000000001</ele><time>2026-03-28T10:04:23.266Z</time></trkpt><trkpt lat="41.8368384" lon="13.4504425"><ele>984.0000000000001</ele><time>2026-03-28T10:04:24.266Z</time></trkpt><trkpt lat="41.8369022" lon="13.4503732"><ele>984.0</ele><time>2026-03-28T10:04:25.266Z</time></trkpt><trkpt lat="41.8369635" lon="13.4503"><ele>984.0</ele><time>2026-03-28T10:04:26.266Z</time></trkpt><trkpt lat="41.8370343" lon="13.4502012"><ele>984.4000000000001</ele><time>2026-03-28T10:04:27.266Z</time></trkpt><trkpt lat="41.8370882" lon="13.4501064"><ele>984.8000000000001</ele><time>2026-03-28T10:04:28.266Z</time></trkpt><trkpt lat="41.8371579" lon="13.449996"><ele>985.1999999999999</ele><time>2026-03-28T10:04:29.265Z</time></trkpt><trkpt lat="41.8372294" lon="13.4498728"><ele>985.5999999999999</ele><time>2026-03-28T10:04:30.266Z</time></trkpt><trkpt lat="41.8372952" lon="13.4497461"><ele>986.0</ele><time>2026-03-28T10:04:31.265Z</time></trkpt><trkpt lat="41.8373629" lon="13.4496162"><ele>990.75</ele><time>2026-03-28T10:04:32.266Z</time></trkpt><trkpt lat="41.8374104" lon="13.4494867"><ele>995.5</ele><time>2026-03-28T10:04:33.265Z</time></trkpt><trkpt lat="41.837444" lon="13.4493398"><ele>1000.25</ele><time>2026-03-28T10:04:34.266Z</time></trkpt><trkpt lat="41.8374903" lon="13.4491874"><ele>1005.0</ele><time>2026-03-28T10:04:35.266Z</time></trkpt><trkpt lat="41.8375377" lon="13.4490347"><ele>1005.0</ele><time>2026-03-28T10:04:36.266Z</time></trkpt><trkpt lat="41.8375691" lon="13.4488877"><ele>1005.0</ele><time>2026-03-28T10:04:37.266Z</time></trkpt><trkpt lat="41.8376085" lon="13.4487515"><ele>1005.0</ele><time>2026-03-28T10:04:38.266Z</time></trkpt><trkpt lat="41.8376614" lon="13.4486643"><ele>1005.0</ele><time>2026-03-28T10:04:39.267Z</time></trkpt><trkpt lat="41.8377133" lon="13.4485557"><ele>1005.0</ele><time>2026-03-28T10:04:40.266Z</time></trkpt><trkpt lat="41.8377617" lon="13.4484297"><ele>1004.0</ele><time>2026-03-28T10:04:41.266Z</time></trkpt><trkpt lat="41.8377938" lon="13.4483068"><ele>1003.0</ele><time>2026-03-28T10:04:42.266Z</time></trkpt><trkpt lat="41.8378191" lon="13.4482032"><ele>1002.0</ele><time>2026-03-28T10:04:43.266Z</time></trkpt><trkpt lat="41.8378393" lon="13.4480838"><ele>1001.0</ele><time>2026-03-28T10:04:44.266Z</time></trkpt><trkpt lat="41.8378531" lon="13.4479649"><ele>1000.0</ele><time>2026-03-28T10:04:45.266Z</time></trkpt><trkpt lat="41.8379217" lon="13.4478229"><ele>1002.3333333333333</ele><time>2026-03-28T10:04:47.266Z</time></trkpt><trkpt lat="41.837964" lon="13.4477535"><ele>1004.6666666666666</ele><time>2026-03-28T10:04:48.266Z</time></trkpt><trkpt lat="41.8380346" lon="13.4476864"><ele>1007.0</ele><time>2026-03-28T10:04:49.266Z</time></trkpt><trkpt lat="41.8381012" lon="13.4476113"><ele>1009.3333333333333</ele><time>2026-03-28T10:04:50.266Z</time></trkpt><trkpt lat="41.8381651" lon="13.4475513"><ele>1011.6666666666666</ele><time>2026-03-28T10:04:51.266Z</time></trkpt><trkpt lat="41.8382164" lon="13.4474916"><ele>1014.0</ele><time>2026-03-28T10:04:52.266Z</time></trkpt><trkpt lat="41.8382841" lon="13.4473894"><ele>1014.0</ele><time>2026-03-28T10:04:54.266Z</time></trkpt><trkpt lat="41.8383556" lon="13.447286"><ele>1014.0000000000001</ele><time>2026-03-28T10:04:56.265Z</time></trkpt><trkpt lat="41.8384593" lon="13.4471822"><ele>1014.0000000000001</ele><time>2026-03-28T10:04:58.265Z</time></trkpt><trkpt lat="41.8385125" lon="13.4471328"><ele>1014.0</ele><time>2026-03-28T10:04:59.266Z</time></trkpt><trkpt lat="41.8386283" lon="13.4470928"><ele>1014.0</ele><time>2026-03-28T10:05:01.266Z</time></trkpt><trkpt lat="41.838732" lon="13.4469795"><ele>1013.6666666666666</ele><time>2026-03-28T10:05:03.266Z</time></trkpt><trkpt lat="41.8387771" lon="13.4469087"><ele>1013.3333333333333</ele><time>2026-03-28T10:05:04.264Z</time></trkpt><trkpt lat="41.8388248" lon="13.4468257"><ele>1013.0</ele><time>2026-03-28T10:05:05.266Z</time></trkpt><trkpt lat="41.8388792" lon="13.4467339"><ele>1012.6666666666666</ele><time>2026-03-28T10:05:06.266Z</time></trkpt><trkpt lat="41.8389227" lon="13.4466373"><ele>1012.3333333333333</ele><time>2026-03-28T10:05:07.267Z</time></trkpt><trkpt lat="41.8389665" lon="13.4465543"><ele>1012.0</ele><time>2026-03-28T10:05:08.266Z</time></trkpt><trkpt lat="41.839004" lon="13.4464649"><ele>1011.9999999999999</ele><time>2026-03-28T10:05:09.265Z</time></trkpt><trkpt lat="41.8390404" lon="13.4463726"><ele>1012.0</ele><time>2026-03-28T10:05:10.267Z</time></trkpt><trkpt lat="41.8391011" lon="13.4462928"><ele>1012.0</ele><time>2026-03-28T10:05:11.265Z</time></trkpt><trkpt lat="41.8391751" lon="13.4462027"><ele>1012.0</ele><time>2026-03-28T10:05:12.266Z</time></trkpt><trkpt lat="41.8392437" lon="13.4461189"><ele>1011.9999999999999</ele><time>2026-03-28T10:05:13.266Z</time></trkpt><trkpt lat="41.8392892" lon="13.4460211"><ele>1012.0</ele><time>2026-03-28T10:05:14.266Z</time></trkpt><trkpt lat="41.8393343" lon="13.4459251"><ele>1012.6666666666666</ele><time>2026-03-28T10:05:15.266Z</time></trkpt><trkpt lat="41.8393545" lon="13.4458301"><ele>1013.3333333333333</ele><time>2026-03-28T10:05:16.267Z</time></trkpt><trkpt lat="41.8393776" lon="13.4457274"><ele>1014.0</ele><time>2026-03-28T10:05:17.266Z</time></trkpt><trkpt lat="41.8393725" lon="13.4456002"><ele>1014.6666666666667</ele><time>2026-03-28T10:05:18.265Z</time></trkpt><trkpt lat="41.8393953" lon="13.4454679"><ele>1015.3333333333334</ele><time>2026-03-28T10:05:19.266Z</time></trkpt><trkpt lat="41.839416" lon="13.4453526"><ele>1016.0</ele><time>2026-03-28T10:05:20.266Z</time></trkpt><trkpt lat="41.8394643" lon="13.4452468"><ele>1016.0</ele><time>2026-03-28T10:05:21.265Z</time></trkpt><trkpt lat="41.8395133" lon="13.445137"><ele>1015.9999999999999</ele><time>2026-03-28T10:05:22.266Z</time></trkpt><trkpt lat="41.8395611" lon="13.4450249"><ele>1015.9999999999999</ele><time>2026-03-28T10:05:23.267Z</time></trkpt><trkpt lat="41.8396045" lon="13.4449074"><ele>1016.0</ele><time>2026-03-28T10:05:24.266Z</time></trkpt><trkpt lat="41.8396486" lon="13.4447978"><ele>1016.0</ele><time>2026-03-28T10:05:25.267Z</time></trkpt><trkpt lat="41.839694" lon="13.4447085"><ele>1018.3333333333334</ele><time>2026-03-28T10:05:26.265Z</time></trkpt><trkpt lat="41.8397252" lon="13.4446196"><ele>1020.6666666666667</ele><time>2026-03-28T10:05:27.266Z</time></trkpt><trkpt lat="41.839718" lon="13.4445188"><ele>1023.0</ele><time>2026-03-28T10:05:28.266Z</time></trkpt><trkpt lat="41.8397319" lon="13.4444252"><ele>1025.3333333333333</ele><time>2026-03-28T10:05:29.267Z</time></trkpt><trkpt lat="41.8397745" lon="13.4443317"><ele>1027.6666666666665</ele><time>2026-03-28T10:05:30.267Z</time></trkpt><trkpt lat="41.839824" lon="13.4441959"><ele>1030.0</ele><time>2026-03-28T10:05:31.267Z</time></trkpt><trkpt lat="41.8398772" lon="13.4440976"><ele>1030.0</ele><time>2026-03-28T10:05:32.267Z</time></trkpt><trkpt lat="41.83992" lon="13.4439931"><ele>1030.0</ele><time>2026-03-28T10:05:33.267Z</time></trkpt><trkpt lat="41.839971" lon="13.4439116"><ele>1030.0</ele><time>2026-03-28T10:05:34.267Z</time></trkpt><trkpt lat="41.8399841" lon="13.4438123"><ele>1030.0</ele><time>2026-03-28T10:05:35.267Z</time></trkpt><trkpt lat="41.8400016" lon="13.4437007"><ele>1030.0</ele><time>2026-03-28T10:05:36.267Z</time></trkpt><trkpt lat="41.8400316" lon="13.4435847"><ele>1030.0</ele><time>2026-03-28T10:05:37.268Z</time></trkpt><trkpt lat="41.8400542" lon="13.4434897"><ele>1029.5</ele><time>2026-03-28T10:05:38.267Z</time></trkpt><trkpt lat="41.8400991" lon="13.4434197"><ele>1029.0</ele><time>2026-03-28T10:05:39.267Z</time></trkpt><trkpt lat="41.8401486" lon="13.4433545"><ele>1028.5</ele><time>2026-03-28T10:05:40.267Z</time></trkpt><trkpt lat="41.840212" lon="13.4432999"><ele>1028.0</ele><time>2026-03-28T10:05:41.267Z</time></trkpt><trkpt lat="41.8402919" lon="13.4432459"><ele>1027.5</ele><time>2026-03-28T10:05:42.267Z</time></trkpt><trkpt lat="41.840384" lon="13.4431915"><ele>1027.0</ele><time>2026-03-28T10:05:43.267Z</time></trkpt><trkpt lat="41.8404808" lon="13.4431268"><ele>1027.0</ele><time>2026-03-28T10:05:44.267Z</time></trkpt><trkpt lat="41.8405758" lon="13.4430592"><ele>1027.0</ele><time>2026-03-28T10:05:45.268Z</time></trkpt><trkpt lat="41.8406359" lon="13.4430194"><ele>1027.0</ele><time>2026-03-28T10:05:46.267Z</time></trkpt><trkpt lat="41.8406598" lon="13.4429233"><ele>1027.0</ele><time>2026-03-28T10:05:47.267Z</time></trkpt><trkpt lat="41.8407256" lon="13.4428197"><ele>1027.0</ele><time>2026-03-28T10:05:48.267Z</time></trkpt><trkpt lat="41.840776" lon="13.4427161"><ele>1027.0</ele><time>2026-03-28T10:05:49.267Z</time></trkpt><trkpt lat="41.8408268" lon="13.4426226"><ele>1027.4285714285716</ele><time>2026-03-28T10:05:50.267Z</time></trkpt><trkpt lat="41.8408943" lon="13.4425685"><ele>1027.857142857143</ele><time>2026-03-28T10:05:51.267Z</time></trkpt><trkpt lat="41.8409722" lon="13.4425572"><ele>1028.2857142857142</ele><time>2026-03-28T10:05:52.267Z</time></trkpt><trkpt lat="41.841041" lon="13.4425182"><ele>1028.7142857142858</ele><time>2026-03-28T10:05:53.267Z</time></trkpt><trkpt lat="41.841101" lon="13.4424661"><ele>1029.142857142857</ele><time>2026-03-28T10:05:54.267Z</time></trkpt><trkpt lat="41.8411397" lon="13.4423887"><ele>1029.5714285714287</ele><time>2026-03-28T10:05:55.266Z</time></trkpt><trkpt lat="41.8411593" lon="13.4422902"><ele>1030.0</ele><time>2026-03-28T10:05:56.267Z</time></trkpt><trkpt lat="41.8411885" lon="13.4421465"><ele>1033.0</ele><time>2026-03-28T10:05:58.267Z</time></trkpt><trkpt lat="41.8412482" lon="13.4419835"><ele>1036.0</ele><time>2026-03-28T10:06:00.267Z</time></trkpt><trkpt lat="41.841303" lon="13.4418974"><ele>1039.0</ele><time>2026-03-28T10:06:01.267Z</time></trkpt><trkpt lat="41.8413573" lon="13.4418114"><ele>1042.0</ele><time>2026-03-28T10:06:02.267Z</time></trkpt><trkpt lat="41.8414242" lon="13.4417234"><ele>1045.0</ele><time>2026-03-28T10:06:03.267Z</time></trkpt><trkpt lat="41.8414842" lon="13.4416349"><ele>1045.0</ele><time>2026-03-28T10:06:04.267Z</time></trkpt><trkpt lat="41.8415506" lon="13.4415387"><ele>1045.0</ele><time>2026-03-28T10:06:05.267Z</time></trkpt><trkpt lat="41.8416095" lon="13.4414261"><ele>1045.0</ele><time>2026-03-28T10:06:06.267Z</time></trkpt><trkpt lat="41.8416716" lon="13.441338"><ele>1045.0</ele><time>2026-03-28T10:06:07.266Z</time></trkpt><trkpt lat="41.8417362" lon="13.441249"><ele>1045.0</ele><time>2026-03-28T10:06:08.267Z</time></trkpt><trkpt lat="41.8417905" lon="13.4411688"><ele>1042.0</ele><time>2026-03-28T10:06:09.267Z</time></trkpt><trkpt lat="41.8418487" lon="13.4410736"><ele>1039.0</ele><time>2026-03-28T10:06:10.268Z</time></trkpt><trkpt lat="41.8419029" lon="13.4409758"><ele>1036.0</ele><time>2026-03-28T10:06:11.267Z</time></trkpt><trkpt lat="41.841931" lon="13.4408803"><ele>1033.0</ele><time>2026-03-28T10:06:12.267Z</time></trkpt><trkpt lat="41.841955" lon="13.4407635"><ele>1030.0</ele><time>2026-03-28T10:06:13.268Z</time></trkpt><trkpt lat="41.8419806" lon="13.4406407"><ele>1027.0</ele><time>2026-03-28T10:06:14.267Z</time></trkpt><trkpt lat="41.8419939" lon="13.4405353"><ele>1027.2</ele><time>2026-03-28T10:06:15.267Z</time></trkpt><trkpt lat="41.8419886" lon="13.4404048"><ele>1027.4</ele><time>2026-03-28T10:06:17.267Z</time></trkpt><trkpt lat="41.8419525" lon="13.4403104"><ele>1027.6</ele><time>2026-03-28T10:06:32.267Z</time></trkpt><trkpt lat="41.841983" lon="13.4402171"><ele>1027.8</ele><time>2026-03-28T10:06:50.267Z</time></trkpt><trkpt lat="41.8420279" lon="13.4400964"><ele>1028.0</ele><time>2026-03-28T10:06:53.267Z</time></trkpt><trkpt lat="41.8420712" lon="13.4399608"><ele>1028.0</ele><time>2026-03-28T10:06:55.267Z</time></trkpt><trkpt lat="41.8420968" lon="13.4398702"><ele>1028.0</ele><time>2026-03-28T10:06:57.267Z</time></trkpt><trkpt lat="41.842112" lon="13.4397299"><ele>1028.0</ele><time>2026-03-28T10:07:00.267Z</time></trkpt><trkpt lat="41.8421557" lon="13.4396347"><ele>1028.0</ele><time>2026-03-28T10:07:02.267Z</time></trkpt><trkpt lat="41.8422029" lon="13.439521"><ele>1028.0</ele><time>2026-03-28T10:07:04.267Z</time></trkpt><trkpt lat="41.8422166" lon="13.4393936"><ele>1027.3333333333335</ele><time>2026-03-28T10:07:06.267Z</time></trkpt><trkpt lat="41.842214" lon="13.4392784"><ele>1026.6666666666667</ele><time>2026-03-28T10:07:08.266Z</time></trkpt><trkpt lat="41.8422072" lon="13.4391741"><ele>1026.0</ele><time>2026-03-28T10:07:10.267Z</time></trkpt><trkpt lat="41.8422285" lon="13.4390842"><ele>1025.3333333333333</ele><time>2026-03-28T10:07:12.267Z</time></trkpt><trkpt lat="41.842273" lon="13.4389641"><ele>1024.6666666666665</ele><time>2026-03-28T10:07:14.266Z</time></trkpt><trkpt lat="41.8423284" lon="13.4388499"><ele>1024.0</ele><time>2026-03-28T10:07:16.266Z</time></trkpt><trkpt lat="41.8423876" lon="13.4387905"><ele>1022.1666666666666</ele><time>2026-03-28T10:08:16.267Z</time></trkpt><trkpt lat="41.8424589" lon="13.4387319"><ele>1020.3333333333333</ele><time>2026-03-28T10:08:18.267Z</time></trkpt><trkpt lat="41.8425195" lon="13.4386821"><ele>1018.5</ele><time>2026-03-28T10:08:20.267Z</time></trkpt><trkpt lat="41.8425931" lon="13.438631"><ele>1016.6666666666667</ele><time>2026-03-28T10:08:22.267Z</time></trkpt><trkpt lat="41.8426575" lon="13.4386329"><ele>1014.8333333333334</ele><time>2026-03-28T10:08:24.267Z</time></trkpt><trkpt lat="41.8427342" lon="13.4385901"><ele>1013.0</ele><time>2026-03-28T10:08:26.267Z</time></trkpt><trkpt lat="41.8428004" lon="13.438535"><ele>1009.8</ele><time>2026-03-28T10:08:28.267Z</time></trkpt><trkpt lat="41.8428831" lon="13.4384659"><ele>1006.5999999999999</ele><time>2026-03-28T10:08:30.267Z</time></trkpt><trkpt lat="41.8429628" lon="13.4383807"><ele>1003.4000000000001</ele><time>2026-03-28T10:08:32.267Z</time></trkpt><trkpt lat="41.8430326" lon="13.4382773"><ele>1000.2</ele><time>2026-03-28T10:08:34.268Z</time></trkpt><trkpt lat="41.8431036" lon="13.4381905"><ele>997.0</ele><time>2026-03-28T10:08:36.267Z</time></trkpt><trkpt lat="41.8431517" lon="13.4381325"><ele>996.9999999999999</ele><time>2026-03-28T10:08:37.267Z</time></trkpt><trkpt lat="41.8432437" lon="13.4380378"><ele>997.0</ele><time>2026-03-28T10:08:39.267Z</time></trkpt><trkpt lat="41.8432976" lon="13.4379836"><ele>997.0</ele><time>2026-03-28T10:08:40.267Z</time></trkpt><trkpt lat="41.8433026" lon="13.4378591"><ele>997.0</ele><time>2026-03-28T10:08:42.267Z</time></trkpt><trkpt lat="41.8433186" lon="13.4377657"><ele>996.9999999999999</ele><time>2026-03-28T10:08:43.267Z</time></trkpt><trkpt lat="41.8433349" lon="13.4376791"><ele>997.0</ele><time>2026-03-28T10:08:44.267Z</time></trkpt><trkpt lat="41.8433552" lon="13.4375922"><ele>993.0</ele><time>2026-03-28T10:08:45.267Z</time></trkpt><trkpt lat="41.8434181" lon="13.4374978"><ele>989.0</ele><time>2026-03-28T10:08:47.266Z</time></trkpt><trkpt lat="41.8434925" lon="13.4374459"><ele>985.0</ele><time>2026-03-28T10:08:49.267Z</time></trkpt><trkpt lat="41.8435775" lon="13.4373879"><ele>981.0</ele><time>2026-03-28T10:08:51.267Z</time></trkpt><trkpt lat="41.8436646" lon="13.4373286"><ele>977.0</ele><time>2026-03-28T10:08:53.268Z</time></trkpt><trkpt lat="41.8437329" lon="13.4372472"><ele>974.6666666666667</ele><time>2026-03-28T10:08:55.266Z</time></trkpt><trkpt lat="41.8438254" lon="13.4371953"><ele>972.3333333333334</ele><time>2026-03-28T10:08:58.267Z</time></trkpt><trkpt lat="41.84391" lon="13.4371459"><ele>970.0</ele><time>2026-03-28T10:09:00.267Z</time></trkpt><trkpt lat="41.8439803" lon="13.4370762"><ele>967.6666666666667</ele><time>2026-03-28T10:09:02.267Z</time></trkpt><trkpt lat="41.8440058" lon="13.4369804"><ele>965.3333333333334</ele><time>2026-03-28T10:09:04.267Z</time></trkpt><trkpt lat="41.8440431" lon="13.4368893"><ele>963.0</ele><time>2026-03-28T10:09:06.267Z</time></trkpt><trkpt lat="41.8440856" lon="13.4367995"><ele>959.1666666666666</ele><time>2026-03-28T10:09:08.267Z</time></trkpt><trkpt lat="41.8441224" lon="13.4367047"><ele>955.3333333333333</ele><time>2026-03-28T10:09:10.267Z</time></trkpt><trkpt lat="41.8441694" lon="13.4366064"><ele>951.5</ele><time>2026-03-28T10:09:12.267Z</time></trkpt><trkpt lat="41.8442534" lon="13.4365639"><ele>947.6666666666666</ele><time>2026-03-28T10:09:14.267Z</time></trkpt><trkpt lat="41.84432" lon="13.4365049"><ele>943.8333333333333</ele><time>2026-03-28T10:09:17.267Z</time></trkpt><trkpt lat="41.844381" lon="13.4364375"><ele>940.0</ele><time>2026-03-28T10:09:20.267Z</time></trkpt><trkpt lat="41.8444401" lon="13.4363494"><ele>933.8333333333333</ele><time>2026-03-28T10:09:23.267Z</time></trkpt><trkpt lat="41.8444864" lon="13.4362861"><ele>927.6666666666666</ele><time>2026-03-28T10:09:25.267Z</time></trkpt><trkpt lat="41.8445507" lon="13.436207"><ele>921.5</ele><time>2026-03-28T10:09:28.267Z</time></trkpt><trkpt lat="41.8445967" lon="13.4361128"><ele>915.3333333333333</ele><time>2026-03-28T10:09:31.266Z</time></trkpt><trkpt lat="41.8446281" lon="13.4360287"><ele>909.1666666666666</ele><time>2026-03-28T10:09:33.267Z</time></trkpt><trkpt lat="41.8446722" lon="13.4359139"><ele>903.0</ele><time>2026-03-28T10:09:35.267Z</time></trkpt><trkpt lat="41.8446958" lon="13.4358199"><ele>903.0</ele><time>2026-03-28T10:09:39.266Z</time></trkpt><trkpt lat="41.8447203" lon="13.4357183"><ele>903.0</ele><time>2026-03-28T10:09:42.267Z</time></trkpt><trkpt lat="41.8447513" lon="13.4356438"><ele>903.0</ele><time>2026-03-28T10:09:44.267Z</time></trkpt><trkpt lat="41.8447959" lon="13.4355197"><ele>903.0</ele><time>2026-03-28T10:09:47.267Z</time></trkpt><trkpt lat="41.8448193" lon="13.4353973"><ele>903.0</ele><time>2026-03-28T10:09:49.267Z</time></trkpt><trkpt lat="41.8448549" lon="13.4353156"><ele>903.0</ele><time>2026-03-28T10:09:51.267Z</time></trkpt><trkpt lat="41.8448864" lon="13.4352014"><ele>900.6666666666666</ele><time>2026-03-28T10:09:53.267Z</time></trkpt><trkpt lat="41.8449343" lon="13.4351187"><ele>898.3333333333333</ele><time>2026-03-28T10:09:55.266Z</time></trkpt><trkpt lat="41.8450331" lon="13.43507"><ele>896.0</ele><time>2026-03-28T10:09:57.266Z</time></trkpt><trkpt lat="41.8450972" lon="13.4350338"><ele>893.6666666666666</ele><time>2026-03-28T10:09:58.267Z</time></trkpt><trkpt lat="41.8452129" lon="13.4349544"><ele>891.3333333333333</ele><time>2026-03-28T10:10:00.267Z</time></trkpt><trkpt lat="41.8452715" lon="13.4349212"><ele>889.0</ele><time>2026-03-28T10:10:01.267Z</time></trkpt><trkpt lat="41.8453829" lon="13.434855"><ele>886.4999999999999</ele><time>2026-03-28T10:10:03.267Z</time></trkpt><trkpt lat="41.8454367" lon="13.4347937"><ele>884.0</ele><time>2026-03-28T10:10:04.267Z</time></trkpt><trkpt lat="41.8454888" lon="13.4347333"><ele>881.5</ele><time>2026-03-28T10:10:05.267Z</time></trkpt><trkpt lat="41.8455315" lon="13.4346625"><ele>879.0</ele><time>2026-03-28T10:10:06.267Z</time></trkpt><trkpt lat="41.8455855" lon="13.4346034"><ele>876.4999999999999</ele><time>2026-03-28T10:10:07.267Z</time></trkpt><trkpt lat="41.8456486" lon="13.4345443"><ele>874.0</ele><time>2026-03-28T10:10:08.267Z</time></trkpt><trkpt lat="41.8457293" lon="13.4344472"><ele>874.0</ele><time>2026-03-28T10:10:10.267Z</time></trkpt><trkpt lat="41.8457407" lon="13.4343633"><ele>874.0</ele><time>2026-03-28T10:10:12.267Z</time></trkpt><trkpt lat="41.8468105" lon="13.4315232"><ele>863.9999999999999</ele><time>2026-03-28T10:11:56.268Z</time></trkpt><trkpt lat="41.8468343" lon="13.4313568"><ele>854.0</ele><time>2026-03-28T10:11:58.267Z</time></trkpt><trkpt lat="41.846872" lon="13.4312861"><ele>844.0</ele><time>2026-03-28T10:11:59.267Z</time></trkpt><trkpt lat="41.8469115" lon="13.4312065"><ele>834.0</ele><time>2026-03-28T10:12:00.267Z</time></trkpt><trkpt lat="41.8469482" lon="13.4311292"><ele>823.9999999999999</ele><time>2026-03-28T10:12:01.267Z</time></trkpt><trkpt lat="41.8469796" lon="13.4310542"><ele>814.0</ele><time>2026-03-28T10:12:02.266Z</time></trkpt><trkpt lat="41.8470597" lon="13.4309819"><ele>809.8000000000001</ele><time>2026-03-28T10:12:04.267Z</time></trkpt><trkpt lat="41.8471131" lon="13.430892"><ele>805.6</ele><time>2026-03-28T10:12:06.267Z</time></trkpt><trkpt lat="41.847231" lon="13.4307401"><ele>801.4</ele><time>2026-03-28T10:12:10.267Z</time></trkpt><trkpt lat="41.8472594" lon="13.4306432"><ele>797.2</ele><time>2026-03-28T10:12:12.267Z</time></trkpt><trkpt lat="41.847303" lon="13.4305713"><ele>793.0</ele><time>2026-03-28T10:12:14.268Z</time></trkpt><trkpt lat="41.8473715" lon="13.4305715"><ele>793.0</ele><time>2026-03-28T10:12:17.267Z</time></trkpt><trkpt lat="41.847457" lon="13.4305888"><ele>793.0</ele><time>2026-03-28T10:12:20.267Z</time></trkpt><trkpt lat="41.847493" lon="13.4304601"><ele>793.0</ele><time>2026-03-28T10:12:23.267Z</time></trkpt><trkpt lat="41.8474966" lon="13.4303018"><ele>793.0</ele><time>2026-03-28T10:12:25.267Z</time></trkpt><trkpt lat="41.8475009" lon="13.4301836"><ele>793.0</ele><time>2026-03-28T10:12:27.267Z</time></trkpt><trkpt lat="41.8475351" lon="13.4300166"><ele>790.4</ele><time>2026-03-28T10:12:33.268Z</time></trkpt><trkpt lat="41.847555" lon="13.4299248"><ele>787.8</ele><time>2026-03-28T10:12:36.267Z</time></trkpt><trkpt lat="41.8476235" lon="13.4298763"><ele>785.2</ele><time>2026-03-28T10:12:45.267Z</time></trkpt><trkpt lat="41.8477015" lon="13.4298884"><ele>782.6</ele><time>2026-03-28T10:12:47.267Z</time></trkpt><trkpt lat="41.8477774" lon="13.4298975"><ele>780.0</ele><time>2026-03-28T10:12:49.267Z</time></trkpt><trkpt lat="41.847869" lon="13.4300555"><ele>776.5</ele><time>2026-03-28T10:12:54.267Z</time></trkpt><trkpt lat="41.8479051" lon="13.4301541"><ele>773.0</ele><time>2026-03-28T10:12:56.267Z</time></trkpt><trkpt lat="41.8479544" lon="13.4302697"><ele>769.5</ele><time>2026-03-28T10:12:58.267Z</time></trkpt><trkpt lat="41.8480106" lon="13.4303752"><ele>766.0</ele><time>2026-03-28T10:13:00.266Z</time></trkpt><trkpt lat="41.8480833" lon="13.430421"><ele>762.5</ele><time>2026-03-28T10:13:02.267Z</time></trkpt><trkpt lat="41.8481459" lon="13.4304051"><ele>759.0</ele><time>2026-03-28T10:13:03.267Z</time></trkpt><trkpt lat="41.8482292" lon="13.4303868"><ele>759.0</ele><time>2026-03-28T10:13:04.267Z</time></trkpt><trkpt lat="41.8483126" lon="13.4303695"><ele>759.0</ele><time>2026-03-28T10:13:05.267Z</time></trkpt><trkpt lat="41.8483835" lon="13.4303682"><ele>759.0</ele><time>2026-03-28T10:13:06.266Z</time></trkpt><trkpt lat="41.848515" lon="13.4304334"><ele>759.0</ele><time>2026-03-28T10:13:08.268Z</time></trkpt><trkpt lat="41.8486009" lon="13.4304823"><ele>759.0</ele><time>2026-03-28T10:13:09.267Z</time></trkpt><trkpt lat="41.8486822" lon="13.4305476"><ele>762.6</ele><time>2026-03-28T10:13:10.267Z</time></trkpt><trkpt lat="41.848841" lon="13.4306558"><ele>766.2</ele><time>2026-03-28T10:13:12.267Z</time></trkpt><trkpt lat="41.8489048" lon="13.4306733"><ele>769.8000000000001</ele><time>2026-03-28T10:13:13.267Z</time></trkpt><trkpt lat="41.8489765" lon="13.4306686"><ele>773.4000000000001</ele><time>2026-03-28T10:13:14.267Z</time></trkpt><trkpt lat="41.8490467" lon="13.4306379"><ele>777.0</ele><time>2026-03-28T10:13:15.267Z</time></trkpt><trkpt lat="41.8491289" lon="13.4305937"><ele>777.0</ele><time>2026-03-28T10:13:16.267Z</time></trkpt><trkpt lat="41.8492182" lon="13.4305557"><ele>777.0</ele><time>2026-03-28T10:13:17.266Z</time></trkpt><trkpt lat="41.8493046" lon="13.4305125"><ele>777.0</ele><time>2026-03-28T10:13:18.267Z</time></trkpt><trkpt lat="41.8493796" lon="13.4304893"><ele>777.0</ele><time>2026-03-28T10:13:19.267Z</time></trkpt><trkpt lat="41.8494633" lon="13.4304933"><ele>777.0</ele><time>2026-03-28T10:13:20.267Z</time></trkpt><trkpt lat="41.8495586" lon="13.4305084"><ele>777.0</ele><time>2026-03-28T10:13:21.266Z</time></trkpt><trkpt lat="41.8496589" lon="13.4305275"><ele>775.5</ele><time>2026-03-28T10:13:22.267Z</time></trkpt><trkpt lat="41.8497417" lon="13.4305176"><ele>774.0</ele><time>2026-03-28T10:13:23.267Z</time></trkpt><trkpt lat="41.8498083" lon="13.4304944"><ele>772.5</ele><time>2026-03-28T10:13:24.268Z</time></trkpt><trkpt lat="41.8498787" lon="13.4304277"><ele>771.0</ele><time>2026-03-28T10:13:26.267Z</time></trkpt><trkpt lat="41.8499593" lon="13.4304012"><ele>769.5</ele><time>2026-03-28T10:13:28.267Z</time></trkpt><trkpt lat="41.8500118" lon="13.4305093"><ele>768.0</ele><time>2026-03-28T10:13:30.267Z</time></trkpt><trkpt lat="41.8500768" lon="13.4306432"><ele>761.8</ele><time>2026-03-28T10:13:32.266Z</time></trkpt><trkpt lat="41.8501353" lon="13.4308244"><ele>755.5999999999999</ele><time>2026-03-28T10:13:34.267Z</time></trkpt><trkpt lat="41.8501744" lon="13.4308993"><ele>749.4000000000001</ele><time>2026-03-28T10:13:35.267Z</time></trkpt><trkpt lat="41.8502012" lon="13.4309837"><ele>743.2</ele><time>2026-03-28T10:13:36.267Z</time></trkpt><trkpt lat="41.8502302" lon="13.4310613"><ele>737.0</ele><time>2026-03-28T10:13:37.266Z</time></trkpt><trkpt lat="41.8502795" lon="13.4311888"><ele>737.0</ele><time>2026-03-28T10:13:39.267Z</time></trkpt><trkpt lat="41.8503491" lon="13.4313012"><ele>737.0</ele><time>2026-03-28T10:13:41.267Z</time></trkpt><trkpt lat="41.850444" lon="13.4313761"><ele>737.0</ele><time>2026-03-28T10:13:43.267Z</time></trkpt><trkpt lat="41.8505071" lon="13.4313783"><ele>737.0</ele><time>2026-03-28T10:13:44.267Z</time></trkpt><trkpt lat="41.8505775" lon="13.4313524"><ele>737.0</ele><time>2026-03-28T10:13:46.267Z</time></trkpt><trkpt lat="41.8506718" lon="13.4313444"><ele>737.0</ele><time>2026-03-28T10:13:48.267Z</time></trkpt><trkpt lat="41.8507884" lon="13.4313034"><ele>737.0</ele><time>2026-03-28T10:13:50.267Z</time></trkpt><trkpt lat="41.8509145" lon="13.4312437"><ele>737.0</ele><time>2026-03-28T10:13:52.267Z</time></trkpt><trkpt lat="41.8510267" lon="13.4311923"><ele>737.0</ele><time>2026-03-28T10:13:53.267Z</time></trkpt><trkpt lat="41.8512054" lon="13.4311049"><ele>736.8333333333333</ele><time>2026-03-28T10:13:55.267Z</time></trkpt><trkpt lat="41.8512919" lon="13.4310518"><ele>736.6666666666666</ele><time>2026-03-28T10:13:56.267Z</time></trkpt><trkpt lat="41.8513705" lon="13.4310081"><ele>736.5</ele><time>2026-03-28T10:13:57.267Z</time></trkpt><trkpt lat="41.8514464" lon="13.4309583"><ele>736.3333333333334</ele><time>2026-03-28T10:13:58.267Z</time></trkpt><trkpt lat="41.8515244" lon="13.4309039"><ele>736.1666666666667</ele><time>2026-03-28T10:13:59.267Z</time></trkpt><trkpt lat="41.8516021" lon="13.43087"><ele>736.0</ele><time>2026-03-28T10:14:00.267Z</time></trkpt><trkpt lat="41.851672" lon="13.4308309"><ele>736.0</ele><time>2026-03-28T10:14:01.267Z</time></trkpt><trkpt lat="41.8517454" lon="13.4307892"><ele>736.0</ele><time>2026-03-28T10:14:02.267Z</time></trkpt><trkpt lat="41.8517881" lon="13.4307192"><ele>736.0</ele><time>2026-03-28T10:14:03.267Z</time></trkpt><trkpt lat="41.8518482" lon="13.4306618"><ele>736.0</ele><time>2026-03-28T10:14:04.267Z</time></trkpt><trkpt lat="41.8518961" lon="13.4305998"><ele>736.0</ele><time>2026-03-28T10:14:05.267Z</time></trkpt><trkpt lat="41.8519458" lon="13.430519"><ele>736.0</ele><time>2026-03-28T10:14:06.266Z</time></trkpt><trkpt lat="41.8520218" lon="13.4303699"><ele>728.0</ele><time>2026-03-28T10:14:08.267Z</time></trkpt><trkpt lat="41.8521195" lon="13.4302916"><ele>720.0</ele><time>2026-03-28T10:14:10.267Z</time></trkpt><trkpt lat="41.8522372" lon="13.4302702"><ele>712.0</ele><time>2026-03-28T10:14:12.266Z</time></trkpt><trkpt lat="41.852331" lon="13.4302437"><ele>704.0</ele><time>2026-03-28T10:14:14.267Z</time></trkpt><trkpt lat="41.8524734" lon="13.4301269"><ele>704.0</ele><time>2026-03-28T10:14:18.267Z</time></trkpt><trkpt lat="41.8525491" lon="13.429988"><ele>704.0</ele><time>2026-03-28T10:14:20.267Z</time></trkpt><trkpt lat="41.8525762" lon="13.4298961"><ele>704.0</ele><time>2026-03-28T10:14:21.267Z</time></trkpt><trkpt lat="41.8526197" lon="13.4298155"><ele>704.0</ele><time>2026-03-28T10:14:22.267Z</time></trkpt><trkpt lat="41.8526649" lon="13.4297322"><ele>704.0</ele><time>2026-03-28T10:14:23.266Z</time></trkpt><trkpt lat="41.8527218" lon="13.4296713"><ele>704.0</ele><time>2026-03-28T10:14:24.267Z</time></trkpt><trkpt lat="41.8527784" lon="13.42957"><ele>700.5</ele><time>2026-03-28T10:14:25.267Z</time></trkpt><trkpt lat="41.852832" lon="13.4294936"><ele>697.0</ele><time>2026-03-28T10:14:26.267Z</time></trkpt><trkpt lat="41.852866" lon="13.4294001"><ele>693.5</ele><time>2026-03-28T10:14:27.267Z</time></trkpt><trkpt lat="41.8528926" lon="13.4293078"><ele>690.0</ele><time>2026-03-28T10:14:28.268Z</time></trkpt><trkpt lat="41.8529152" lon="13.4291998"><ele>686.5</ele><time>2026-03-28T10:14:29.267Z</time></trkpt><trkpt lat="41.8529417" lon="13.4291072"><ele>683.0</ele><time>2026-03-28T10:14:30.267Z</time></trkpt><trkpt lat="41.8529766" lon="13.4290281"><ele>683.0</ele><time>2026-03-28T10:14:31.267Z</time></trkpt><trkpt lat="41.8530214" lon="13.4289626"><ele>683.0</ele><time>2026-03-28T10:14:32.267Z</time></trkpt><trkpt lat="41.8530788" lon="13.4288847"><ele>683.0</ele><time>2026-03-28T10:14:33.267Z</time></trkpt><trkpt lat="41.8531502" lon="13.4287994"><ele>683.0</ele><time>2026-03-28T10:14:34.267Z</time></trkpt><trkpt lat="41.8532285" lon="13.4287242"><ele>683.0</ele><time>2026-03-28T10:14:35.267Z</time></trkpt><trkpt lat="41.8533814" lon="13.428545"><ele>680.8571428571429</ele><time>2026-03-28T10:14:37.267Z</time></trkpt><trkpt lat="41.8534517" lon="13.4284691"><ele>678.7142857142857</ele><time>2026-03-28T10:14:38.267Z</time></trkpt><trkpt lat="41.8535062" lon="13.4284191"><ele>676.5714285714286</ele><time>2026-03-28T10:14:39.267Z</time></trkpt><trkpt lat="41.8535649" lon="13.4283868"><ele>674.4285714285714</ele><time>2026-03-28T10:14:40.267Z</time></trkpt><trkpt lat="41.8536327" lon="13.4283649"><ele>672.2857142857143</ele><time>2026-03-28T10:14:41.267Z</time></trkpt><trkpt lat="41.853706" lon="13.4283526"><ele>670.1428571428571</ele><time>2026-03-28T10:14:42.267Z</time></trkpt><trkpt lat="41.8537801" lon="13.4283508"><ele>668.0</ele><time>2026-03-28T10:14:43.267Z</time></trkpt><trkpt lat="41.8538873" lon="13.4282898"><ele>666.0</ele><time>2026-03-28T10:14:45.267Z</time></trkpt><trkpt lat="41.8539416" lon="13.4282191"><ele>664.0</ele><time>2026-03-28T10:14:46.267Z</time></trkpt><trkpt lat="41.853999" lon="13.42816"><ele>662.0</ele><time>2026-03-28T10:14:47.267Z</time></trkpt><trkpt lat="41.8540595" lon="13.4280862"><ele>660.0</ele><time>2026-03-28T10:14:48.267Z</time></trkpt><trkpt lat="41.8541172" lon="13.4280047"><ele>658.0</ele><time>2026-03-28T10:14:49.267Z</time></trkpt><trkpt lat="41.8541637" lon="13.4279294"><ele>656.0</ele><time>2026-03-28T10:14:50.267Z</time></trkpt><trkpt lat="41.8542005" lon="13.4278603"><ele>654.5999999999999</ele><time>2026-03-28T10:14:51.267Z</time></trkpt><trkpt lat="41.8542515" lon="13.427794"><ele>653.2</ele><time>2026-03-28T10:14:53.267Z</time></trkpt><trkpt lat="41.8543134" lon="13.427695"><ele>651.8</ele><time>2026-03-28T10:14:55.267Z</time></trkpt><trkpt lat="41.8543501" lon="13.4276243"><ele>650.4000000000001</ele><time>2026-03-28T10:14:56.267Z</time></trkpt><trkpt lat="41.8544541" lon="13.4274128"><ele>649.0</ele><time>2026-03-28T10:14:59.267Z</time></trkpt><trkpt lat="41.8545032" lon="13.4273595"><ele>646.5</ele><time>2026-03-28T10:15:00.267Z</time></trkpt><trkpt lat="41.854612" lon="13.4273033"><ele>644.0</ele><time>2026-03-28T10:15:02.267Z</time></trkpt><trkpt lat="41.8546634" lon="13.4272421"><ele>641.5</ele><time>2026-03-28T10:15:03.267Z</time></trkpt><trkpt lat="41.8547251" lon="13.4271616"><ele>639.0</ele><time>2026-03-28T10:15:04.267Z</time></trkpt><trkpt lat="41.8547994" lon="13.4270886"><ele>636.5</ele><time>2026-03-28T10:15:05.266Z</time></trkpt><trkpt lat="41.854858" lon="13.4270211"><ele>634.0</ele><time>2026-03-28T10:15:06.267Z</time></trkpt><trkpt lat="41.8549295" lon="13.4269123"><ele>633.6666666666667</ele><time>2026-03-28T10:15:08.267Z</time></trkpt><trkpt lat="41.8549153" lon="13.4267774"><ele>633.3333333333334</ele><time>2026-03-28T10:15:10.267Z</time></trkpt><trkpt lat="41.8548892" lon="13.4266976"><ele>633.0</ele><time>2026-03-28T10:15:11.267Z</time></trkpt><trkpt lat="41.8548467" lon="13.4266135"><ele>632.6666666666666</ele><time>2026-03-28T10:15:12.268Z</time></trkpt><trkpt lat="41.8548034" lon="13.4265468"><ele>632.3333333333333</ele><time>2026-03-28T10:15:13.267Z</time></trkpt><trkpt lat="41.8547017" lon="13.4264404"><ele>632.0</ele><time>2026-03-28T10:15:15.267Z</time></trkpt><trkpt lat="41.8546461" lon="13.4263776"><ele>632.0</ele><time>2026-03-28T10:15:16.267Z</time></trkpt><trkpt lat="41.8545975" lon="13.4263126"><ele>632.0</ele><time>2026-03-28T10:15:17.267Z</time></trkpt><trkpt lat="41.8544653" lon="13.4262669"><ele>632.0</ele><time>2026-03-28T10:15:19.267Z</time></trkpt><trkpt lat="41.8543691" lon="13.4262617"><ele>632.0</ele><time>2026-03-28T10:15:20.267Z</time></trkpt><trkpt lat="41.8542619" lon="13.4262609"><ele>632.0</ele><time>2026-03-28T10:15:21.267Z</time></trkpt><trkpt lat="41.8541532" lon="13.4262585"><ele>629.3333333333333</ele><time>2026-03-28T10:15:22.267Z</time></trkpt><trkpt lat="41.8540675" lon="13.4262569"><ele>626.6666666666666</ele><time>2026-03-28T10:15:23.267Z</time></trkpt><trkpt lat="41.8539973" lon="13.4262327"><ele>624.0</ele><time>2026-03-28T10:15:24.266Z</time></trkpt><trkpt lat="41.8539307" lon="13.4261865"><ele>621.3333333333334</ele><time>2026-03-28T10:15:25.268Z</time></trkpt><trkpt lat="41.8538546" lon="13.4261385"><ele>618.6666666666667</ele><time>2026-03-28T10:15:26.267Z</time></trkpt><trkpt lat="41.8537912" lon="13.4260981"><ele>616.0</ele><time>2026-03-28T10:15:27.267Z</time></trkpt><trkpt lat="41.853713" lon="13.4260675"><ele>616.0</ele><time>2026-03-28T10:15:28.267Z</time></trkpt><trkpt lat="41.8536375" lon="13.4260608"><ele>616.0</ele><time>2026-03-28T10:15:29.267Z</time></trkpt><trkpt lat="41.8535698" lon="13.4260801"><ele>616.0</ele><time>2026-03-28T10:15:30.267Z</time></trkpt><trkpt lat="41.8534853" lon="13.4261039"><ele>616.0</ele><time>2026-03-28T10:15:31.267Z</time></trkpt><trkpt lat="41.8533847" lon="13.42611"><ele>616.0</ele><time>2026-03-28T10:15:32.267Z</time></trkpt><trkpt lat="41.8532906" lon="13.4261038"><ele>616.0</ele><time>2026-03-28T10:15:33.267Z</time></trkpt><trkpt lat="41.8532093" lon="13.426099"><ele>614.0</ele><time>2026-03-28T10:15:34.267Z</time></trkpt><trkpt lat="41.8531242" lon="13.4260706"><ele>612.0</ele><time>2026-03-28T10:15:36.267Z</time></trkpt><trkpt lat="41.8531531" lon="13.4259411"><ele>610.0</ele><time>2026-03-28T10:15:39.267Z</time></trkpt><trkpt lat="41.8532962" lon="13.4257748"><ele>608.0</ele><time>2026-03-28T10:15:41.267Z</time></trkpt><trkpt lat="41.8533842" lon="13.4256741"><ele>609.6</ele><time>2026-03-28T10:15:42.268Z</time></trkpt><trkpt lat="41.853473" lon="13.4255702"><ele>611.1999999999999</ele><time>2026-03-28T10:15:43.267Z</time></trkpt><trkpt lat="41.8535549" lon="13.4254897"><ele>612.8</ele><time>2026-03-28T10:15:44.267Z</time></trkpt><trkpt lat="41.8536311" lon="13.4254108"><ele>614.4</ele><time>2026-03-28T10:15:45.267Z</time></trkpt><trkpt lat="41.8536997" lon="13.4253175"><ele>616.0</ele><time>2026-03-28T10:15:46.268Z</time></trkpt><trkpt lat="41.85377" lon="13.4252254"><ele>612.4</ele><time>2026-03-28T10:15:47.267Z</time></trkpt><trkpt lat="41.8538497" lon="13.4251512"><ele>608.8</ele><time>2026-03-28T10:15:48.268Z</time></trkpt><trkpt lat="41.8539374" lon="13.4250738"><ele>605.1999999999999</ele><time>2026-03-28T10:15:49.267Z</time></trkpt><trkpt lat="41.8540252" lon="13.4249943"><ele>601.6</ele><time>2026-03-28T10:15:50.267Z</time></trkpt><trkpt lat="41.8541023" lon="13.4249186"><ele>598.0</ele><time>2026-03-28T10:15:51.266Z</time></trkpt><trkpt lat="41.8541727" lon="13.4248538"><ele>598.0</ele><time>2026-03-28T10:15:52.267Z</time></trkpt><trkpt lat="41.8542563" lon="13.4248044"><ele>598.0</ele><time>2026-03-28T10:15:53.267Z</time></trkpt><trkpt lat="41.8543635" lon="13.4247573"><ele>598.0</ele><time>2026-03-28T10:15:54.267Z</time></trkpt><trkpt lat="41.8544617" lon="13.4247021"><ele>598.0</ele><time>2026-03-28T10:15:55.267Z</time></trkpt><trkpt lat="41.8545561" lon="13.4246504"><ele>598.0</ele><time>2026-03-28T10:15:56.267Z</time></trkpt><trkpt lat="41.8546488" lon="13.4246254"><ele>595.25</ele><time>2026-03-28T10:15:57.267Z</time></trkpt><trkpt lat="41.8547419" lon="13.424614"><ele>592.5</ele><time>2026-03-28T10:15:58.267Z</time></trkpt><trkpt lat="41.8548404" lon="13.4246238"><ele>589.75</ele><time>2026-03-28T10:15:59.267Z</time></trkpt><trkpt lat="41.8549239" lon="13.4246221"><ele>587.0</ele><time>2026-03-28T10:16:00.267Z</time></trkpt><trkpt lat="41.855119" lon="13.4245854"><ele>586.8333333333333</ele><time>2026-03-28T10:16:02.267Z</time></trkpt><trkpt lat="41.8552106" lon="13.4245503"><ele>586.6666666666666</ele><time>2026-03-28T10:16:03.267Z</time></trkpt><trkpt lat="41.8552658" lon="13.424451"><ele>586.5</ele><time>2026-03-28T10:16:04.267Z</time></trkpt><trkpt lat="41.8552859" lon="13.4243436"><ele>586.3333333333334</ele><time>2026-03-28T10:16:05.267Z</time></trkpt><trkpt lat="41.8552929" lon="13.4242486"><ele>586.1666666666667</ele><time>2026-03-28T10:16:06.267Z</time></trkpt><trkpt lat="41.8552964" lon="13.4241495"><ele>586.0</ele><time>2026-03-28T10:16:07.267Z</time></trkpt><trkpt lat="41.8552997" lon="13.4240556"><ele>586.0</ele><time>2026-03-28T10:16:08.267Z</time></trkpt><trkpt lat="41.8553407" lon="13.4239229"><ele>586.0</ele><time>2026-03-28T10:16:10.267Z</time></trkpt><trkpt lat="41.8554486" lon="13.4238339"><ele>586.0</ele><time>2026-03-28T10:16:12.267Z</time></trkpt><trkpt lat="41.8555115" lon="13.4237401"><ele>586.0</ele><time>2026-03-28T10:16:14.266Z</time></trkpt><trkpt lat="41.8554746" lon="13.4236621"><ele>586.0</ele><time>2026-03-28T10:16:16.268Z</time></trkpt><trkpt lat="41.8553566" lon="13.4236822"><ele>584.0</ele><time>2026-03-28T10:16:18.267Z</time></trkpt><trkpt lat="41.8552803" lon="13.4237182"><ele>582.0</ele><time>2026-03-28T10:16:19.267Z</time></trkpt><trkpt lat="41.8552023" lon="13.4237509"><ele>580.0</ele><time>2026-03-28T10:16:20.267Z</time></trkpt><trkpt lat="41.8550982" lon="13.4237637"><ele>578.0</ele><time>2026-03-28T10:16:22.267Z</time></trkpt><trkpt lat="41.8549027" lon="13.4238075"><ele>578.0</ele><time>2026-03-28T10:16:25.267Z</time></trkpt><trkpt lat="41.8548369" lon="13.423805"><ele>578.0</ele><time>2026-03-28T10:16:26.267Z</time></trkpt><trkpt lat="41.8547469" lon="13.4237049"><ele>578.0</ele><time>2026-03-28T10:16:28.267Z</time></trkpt><trkpt lat="41.8546921" lon="13.4235628"><ele>578.0</ele><time>2026-03-28T10:16:30.267Z</time></trkpt><trkpt lat="41.8546692" lon="13.4234583"><ele>578.0</ele><time>2026-03-28T10:16:32.267Z</time></trkpt></trkseg></trk></gpx>